sensor_id;sensor_type;location;lat;lon;timestamp;temperature;humidity
39023;DHT22;25908;51.984;5.928;2023-01-28T00:01:13;5.30;99.90
39023;DHT22;25908;51.984;5.928;2023-01-28T00:03:40;5.30;99.90
39023;DHT22;25908;51.984;5.928;2023-01-28T00:06:08;5.30;99.90
39023;DHT22;25908;51.984;5.928;2023-01-28T00:08:34;5.30;99.90
39023;DHT22;25908;51.984;5.928;2023-01-28T00:11:01;5.30;99.90
39023;DHT22;25908;51.984;5.928;2023-01-28T00:13:27;5.30;99.90
39023;DHT22;25908;51.984;5.928;2023-01-28T00:15:58;5.30;99.90
39023;DHT22;25908;51.984;5.928;2023-01-28T00:18:28;5.30;99.90
39023;DHT22;25908;51.984;5.928;2023-01-28T00:21:02;5.40;99.90
39023;DHT22;25908;51.984;5.928;2023-01-28T00:23:30;5.40;99.90
39023;DHT22;25908;51.984;5.928;2023-01-28T00:26:03;5.30;99.90
39023;DHT22;25908;51.984;5.928;2023-01-28T00:28:29;5.40;99.90
39023;DHT22;25908;51.984;5.928;2023-01-28T00:30:55;5.40;99.90
39023;DHT22;25908;51.984;5.928;2023-01-28T00:33:21;5.40;99.90
39023;DHT22;25908;51.984;5.928;2023-01-28T00:35:47;5.40;99.90
39023;DHT22;25908;51.984;5.928;2023-01-28T00:38:13;5.40;99.90
39023;DHT22;25908;51.984;5.928;2023-01-28T00:40:39;5.50;99.90
39023;DHT22;25908;51.984;5.928;2023-01-28T00:43:04;5.40;99.90
39023;DHT22;25908;51.984;5.928;2023-01-28T00:45:30;5.50;99.90
39023;DHT22;25908;51.984;5.928;2023-01-28T00:47:55;5.50;99.90
39023;DHT22;25908;51.984;5.928;2023-01-28T00:50:21;5.50;99.90
39023;DHT22;25908;51.984;5.928;2023-01-28T00:52:47;5.50;99.90
39023;DHT22;25908;51.984;5.928;2023-01-28T00:55:13;5.50;99.90
39023;DHT22;25908;51.984;5.928;2023-01-28T00:57:39;5.50;99.90
39023;DHT22;25908;51.984;5.928;2023-01-28T01:00:06;5.50;99.90
39023;DHT22;25908;51.984;5.928;2023-01-28T01:02:32;5.50;99.90
39023;DHT22;25908;51.984;5.928;2023-01-28T01:04:57;5.60;99.90
39023;DHT22;25908;51.984;5.928;2023-01-28T01:07:23;5.50;99.90
39023;DHT22;25908;51.984;5.928;2023-01-28T01:10:13;5.50;99.90
39023;DHT22;25908;51.984;5.928;2023-01-28T01:12:40;5.50;99.90
39023;DHT22;25908;51.984;5.928;2023-01-28T01:15:07;5.50;99.90
39023;DHT22;25908;51.984;5.928;2023-01-28T01:17:39;5.40;99.90
39023;DHT22;25908;51.984;5.928;2023-01-28T01:20:07;5.40;99.90
39023;DHT22;25908;51.984;5.928;2023-01-28T01:22:35;5.40;99.90
39023;DHT22;25908;51.984;5.928;2023-01-28T01:25:02;5.40;99.90
39023;DHT22;25908;51.984;5.928;2023-01-28T01:27:28;5.50;99.90
39023;DHT22;25908;51.984;5.928;2023-01-28T01:29:54;5.50;99.90
39023;DHT22;25908;51.984;5.928;2023-01-28T01:32:20;5.40;99.90
39023;DHT22;25908;51.984;5.928;2023-01-28T01:34:46;5.40;99.90
39023;DHT22;25908;51.984;5.928;2023-01-28T01:37:12;5.40;99.90
39023;DHT22;25908;51.984;5.928;2023-01-28T01:39:38;5.30;99.90
39023;DHT22;25908;51.984;5.928;2023-01-28T01:42:03;5.30;99.90
39023;DHT22;25908;51.984;5.928;2023-01-28T01:44:55;5.30;99.90
39023;DHT22;25908;51.984;5.928;2023-01-28T01:47:26;5.30;99.90
39023;DHT22;25908;51.984;5.928;2023-01-28T01:49:52;5.30;99.90
39023;DHT22;25908;51.984;5.928;2023-01-28T01:52:26;5.30;99.90
39023;DHT22;25908;51.984;5.928;2023-01-28T01:54:56;5.30;99.90
39023;DHT22;25908;51.984;5.928;2023-01-28T01:57:31;5.30;99.90
39023;DHT22;25908;51.984;5.928;2023-01-28T01:59:58;5.30;99.90
39023;DHT22;25908;51.984;5.928;2023-01-28T02:02:39;5.30;99.90
39023;DHT22;25908;51.984;5.928;2023-01-28T02:05:07;5.30;99.90
39023;DHT22;25908;51.984;5.928;2023-01-28T02:07:34;5.30;99.80
39023;DHT22;25908;51.984;5.928;2023-01-28T02:09:59;5.30;99.40
39023;DHT22;25908;51.984;5.928;2023-01-28T02:12:36;5.30;99.30
39023;DHT22;25908;51.984;5.928;2023-01-28T02:15:06;5.30;99.50
39023;DHT22;25908;51.984;5.928;2023-01-28T02:17:33;5.30;99.40
39023;DHT22;25908;51.984;5.928;2023-01-28T02:20:03;5.30;99.10
39023;DHT22;25908;51.984;5.928;2023-01-28T02:22:42;5.30;99.10
39023;DHT22;25908;51.984;5.928;2023-01-28T02:25:31;5.30;99.30
39023;DHT22;25908;51.984;5.928;2023-01-28T02:30:59;5.30;99.60
39023;DHT22;25908;51.984;5.928;2023-01-28T02:36:27;5.30;99.90
39023;DHT22;25908;51.984;5.928;2023-01-28T02:38:55;5.30;99.90
39023;DHT22;25908;51.984;5.928;2023-01-28T02:41:37;5.40;99.90
39023;DHT22;25908;51.984;5.928;2023-01-28T02:44:05;5.30;99.90
39023;DHT22;25908;51.984;5.928;2023-01-28T02:52:11;5.30;99.90
39023;DHT22;25908;51.984;5.928;2023-01-28T03:00:19;5.20;99.90
39023;DHT22;25908;51.984;5.928;2023-01-28T03:03:08;5.20;99.90
39023;DHT22;25908;51.984;5.928;2023-01-28T03:05:41;5.20;99.90
39023;DHT22;25908;51.984;5.928;2023-01-28T03:08:50;5.20;99.90
39023;DHT22;25908;51.984;5.928;2023-01-28T03:11:41;5.20;99.90
39023;DHT22;25908;51.984;5.928;2023-01-28T03:14:26;5.20;99.90
39023;DHT22;25908;51.984;5.928;2023-01-28T03:17:17;5.20;99.90
39023;DHT22;25908;51.984;5.928;2023-01-28T03:20:03;5.20;99.90
39023;DHT22;25908;51.984;5.928;2023-01-28T03:22:50;5.20;99.90
39023;DHT22;25908;51.984;5.928;2023-01-28T03:25:37;5.10;99.90
39023;DHT22;25908;51.984;5.928;2023-01-28T03:28:24;5.10;99.90
39023;DHT22;25908;51.984;5.928;2023-01-28T03:31:13;5.10;99.90
39023;DHT22;25908;51.984;5.928;2023-01-28T03:33:59;5.10;99.90
39023;DHT22;25908;51.984;5.928;2023-01-28T03:36:45;5.10;99.80
39023;DHT22;25908;51.984;5.928;2023-01-28T03:39:29;5.10;99.90
39023;DHT22;25908;51.984;5.928;2023-01-28T03:42:07;5.10;99.90
39023;DHT22;25908;51.984;5.928;2023-01-28T03:44:33;5.10;99.90
39023;DHT22;25908;51.984;5.928;2023-01-28T03:47:18;5.10;99.90
39023;DHT22;25908;51.984;5.928;2023-01-28T03:49:46;5.10;99.90
39023;DHT22;25908;51.984;5.928;2023-01-28T03:52:20;5.10;99.90
39023;DHT22;25908;51.984;5.928;2023-01-28T03:54:46;5.00;99.90
39023;DHT22;25908;51.984;5.928;2023-01-28T03:57:17;5.10;99.90
39023;DHT22;25908;51.984;5.928;2023-01-28T03:59:42;5.10;99.90
39023;DHT22;25908;51.984;5.928;2023-01-28T04:02:09;5.10;99.90
39023;DHT22;25908;51.984;5.928;2023-01-28T04:04:38;5.10;99.90
39023;DHT22;25908;51.984;5.928;2023-01-28T04:07:07;5.00;99.90
39023;DHT22;25908;51.984;5.928;2023-01-28T04:09:34;5.00;99.90
39023;DHT22;25908;51.984;5.928;2023-01-28T04:12:00;5.00;99.90
39023;DHT22;25908;51.984;5.928;2023-01-28T04:14:26;5.00;99.70
39023;DHT22;25908;51.984;5.928;2023-01-28T04:16:51;5.00;99.10
39023;DHT22;25908;51.984;5.928;2023-01-28T04:19:20;5.00;99.20
39023;DHT22;25908;51.984;5.928;2023-01-28T04:21:46;5.00;99.40
39023;DHT22;25908;51.984;5.928;2023-01-28T04:24:12;5.00;99.50
39023;DHT22;25908;51.984;5.928;2023-01-28T04:26:37;5.00;99.60
39023;DHT22;25908;51.984;5.928;2023-01-28T04:29:03;5.00;99.50
39023;DHT22;25908;51.984;5.928;2023-01-28T04:31:29;4.90;99.40
39023;DHT22;25908;51.984;5.928;2023-01-28T04:33:55;4.90;99.60
39023;DHT22;25908;51.984;5.928;2023-01-28T04:36:21;4.90;99.90
39023;DHT22;25908;51.984;5.928;2023-01-28T04:38:46;4.90;99.90
39023;DHT22;25908;51.984;5.928;2023-01-28T04:41:12;4.90;99.90
39023;DHT22;25908;51.984;5.928;2023-01-28T04:43:38;4.90;99.50
39023;DHT22;25908;51.984;5.928;2023-01-28T04:46:03;4.80;98.40
39023;DHT22;25908;51.984;5.928;2023-01-28T04:48:29;4.80;98.60
39023;DHT22;25908;51.984;5.928;2023-01-28T04:50:55;4.70;98.60
39023;DHT22;25908;51.984;5.928;2023-01-28T04:53:22;4.80;98.30
39023;DHT22;25908;51.984;5.928;2023-01-28T04:55:47;4.80;98.20
39023;DHT22;25908;51.984;5.928;2023-01-28T04:58:13;4.80;98.20
39023;DHT22;25908;51.984;5.928;2023-01-28T05:00:39;4.70;98.30
39023;DHT22;25908;51.984;5.928;2023-01-28T05:03:04;4.70;98.60
39023;DHT22;25908;51.984;5.928;2023-01-28T05:05:30;4.80;98.80
39023;DHT22;25908;51.984;5.928;2023-01-28T05:07:57;4.70;98.70
39023;DHT22;25908;51.984;5.928;2023-01-28T05:10:24;4.80;98.70
39023;DHT22;25908;51.984;5.928;2023-01-28T05:12:50;4.80;98.90
39023;DHT22;25908;51.984;5.928;2023-01-28T05:15:16;4.70;98.80
39023;DHT22;25908;51.984;5.928;2023-01-28T05:17:42;4.70;99.00
39023;DHT22;25908;51.984;5.928;2023-01-28T05:20:09;4.70;99.20
39023;DHT22;25908;51.984;5.928;2023-01-28T05:22:35;4.80;99.20
39023;DHT22;25908;51.984;5.928;2023-01-28T05:25:01;4.70;98.60
39023;DHT22;25908;51.984;5.928;2023-01-28T05:27:29;4.70;98.60
39023;DHT22;25908;51.984;5.928;2023-01-28T05:29:55;4.70;98.10
39023;DHT22;25908;51.984;5.928;2023-01-28T05:32:21;4.60;97.00
39023;DHT22;25908;51.984;5.928;2023-01-28T05:34:47;4.60;97.50
39023;DHT22;25908;51.984;5.928;2023-01-28T05:37:13;4.60;97.70
39023;DHT22;25908;51.984;5.928;2023-01-28T05:39:38;4.60;97.10
39023;DHT22;25908;51.984;5.928;2023-01-28T05:42:04;4.50;97.60
39023;DHT22;25908;51.984;5.928;2023-01-28T05:44:29;4.50;98.10
39023;DHT22;25908;51.984;5.928;2023-01-28T05:46:55;4.50;98.00
39023;DHT22;25908;51.984;5.928;2023-01-28T05:49:20;4.50;97.50
39023;DHT22;25908;51.984;5.928;2023-01-28T05:51:46;4.50;97.00
39023;DHT22;25908;51.984;5.928;2023-01-28T05:54:12;4.50;97.30
39023;DHT22;25908;51.984;5.928;2023-01-28T05:56:38;4.50;97.50
39023;DHT22;25908;51.984;5.928;2023-01-28T05:59:04;4.50;97.50
39023;DHT22;25908;51.984;5.928;2023-01-28T06:01:31;4.50;97.30
39023;DHT22;25908;51.984;5.928;2023-01-28T06:03:57;4.50;97.30
39023;DHT22;25908;51.984;5.928;2023-01-28T06:06:24;4.50;97.30
39023;DHT22;25908;51.984;5.928;2023-01-28T06:08:50;4.40;97.20
39023;DHT22;25908;51.984;5.928;2023-01-28T06:11:15;4.50;97.60
39023;DHT22;25908;51.984;5.928;2023-01-28T06:13:41;4.50;97.30
39023;DHT22;25908;51.984;5.928;2023-01-28T06:16:07;4.50;96.90
39023;DHT22;25908;51.984;5.928;2023-01-28T06:18:33;4.50;96.30
39023;DHT22;25908;51.984;5.928;2023-01-28T06:20:59;4.40;96.50
39023;DHT22;25908;51.984;5.928;2023-01-28T06:23:25;4.40;96.50
39023;DHT22;25908;51.984;5.928;2023-01-28T06:25:54;4.40;96.60
39023;DHT22;25908;51.984;5.928;2023-01-28T06:28:20;4.40;96.50
39023;DHT22;25908;51.984;5.928;2023-01-28T06:30:50;4.50;96.60
39023;DHT22;25908;51.984;5.928;2023-01-28T06:33:16;4.40;96.70
39023;DHT22;25908;51.984;5.928;2023-01-28T06:35:42;4.50;96.80
39023;DHT22;25908;51.984;5.928;2023-01-28T06:38:08;4.50;97.00
39023;DHT22;25908;51.984;5.928;2023-01-28T06:40:34;4.50;96.90
39023;DHT22;25908;51.984;5.928;2023-01-28T06:43:00;4.50;96.90
39023;DHT22;25908;51.984;5.928;2023-01-28T06:45:26;4.50;96.60
39023;DHT22;25908;51.984;5.928;2023-01-28T06:47:51;4.50;96.50
39023;DHT22;25908;51.984;5.928;2023-01-28T06:50:17;4.50;96.40
39023;DHT22;25908;51.984;5.928;2023-01-28T06:52:43;4.40;96.30
39023;DHT22;25908;51.984;5.928;2023-01-28T06:55:08;4.40;96.50
39023;DHT22;25908;51.984;5.928;2023-01-28T06:57:37;4.40;96.70
39023;DHT22;25908;51.984;5.928;2023-01-28T07:00:08;4.40;97.00
39023;DHT22;25908;51.984;5.928;2023-01-28T07:02:35;4.40;96.70
39023;DHT22;25908;51.984;5.928;2023-01-28T07:05:01;4.40;96.80
39023;DHT22;25908;51.984;5.928;2023-01-28T07:07:27;4.40;96.80
39023;DHT22;25908;51.984;5.928;2023-01-28T07:09:52;4.40;97.20
39023;DHT22;25908;51.984;5.928;2023-01-28T07:12:18;4.30;96.60
39023;DHT22;25908;51.984;5.928;2023-01-28T07:14:43;4.30;96.80
39023;DHT22;25908;51.984;5.928;2023-01-28T07:17:09;4.20;96.50
39023;DHT22;25908;51.984;5.928;2023-01-28T07:19:35;4.30;97.00
39023;DHT22;25908;51.984;5.928;2023-01-28T07:22:00;4.30;97.20
39023;DHT22;25908;51.984;5.928;2023-01-28T07:24:27;4.30;97.10
39023;DHT22;25908;51.984;5.928;2023-01-28T07:26:53;4.30;96.80
39023;DHT22;25908;51.984;5.928;2023-01-28T07:29:19;4.30;97.00
39023;DHT22;25908;51.984;5.928;2023-01-28T07:31:45;4.30;97.00
39023;DHT22;25908;51.984;5.928;2023-01-28T07:34:10;4.30;97.00
39023;DHT22;25908;51.984;5.928;2023-01-28T07:36:36;4.30;97.20
39023;DHT22;25908;51.984;5.928;2023-01-28T07:39:01;4.30;97.00
39023;DHT22;25908;51.984;5.928;2023-01-28T07:41:27;4.30;97.00
39023;DHT22;25908;51.984;5.928;2023-01-28T07:43:53;4.30;97.20
39023;DHT22;25908;51.984;5.928;2023-01-28T07:46:18;4.30;97.30
39023;DHT22;25908;51.984;5.928;2023-01-28T07:48:44;4.30;97.10
39023;DHT22;25908;51.984;5.928;2023-01-28T07:51:10;4.30;97.20
39023;DHT22;25908;51.984;5.928;2023-01-28T07:53:36;4.30;97.20
39023;DHT22;25908;51.984;5.928;2023-01-28T07:56:02;4.30;97.20
39023;DHT22;25908;51.984;5.928;2023-01-28T07:58:29;4.30;97.20
39023;DHT22;25908;51.984;5.928;2023-01-28T08:00:58;4.40;97.20
39023;DHT22;25908;51.984;5.928;2023-01-28T08:03:23;4.40;97.20
39023;DHT22;25908;51.984;5.928;2023-01-28T08:05:51;4.40;97.20
39023;DHT22;25908;51.984;5.928;2023-01-28T08:08:18;4.40;97.10
39023;DHT22;25908;51.984;5.928;2023-01-28T08:10:44;4.40;97.00
39023;DHT22;25908;51.984;5.928;2023-01-28T08:13:11;4.40;97.00
39023;DHT22;25908;51.984;5.928;2023-01-28T08:15:37;4.40;97.20
39023;DHT22;25908;51.984;5.928;2023-01-28T08:18:04;4.40;97.50
39023;DHT22;25908;51.984;5.928;2023-01-28T08:20:30;4.40;97.20
39023;DHT22;25908;51.984;5.928;2023-01-28T08:23:13;4.40;97.20
39023;DHT22;25908;51.984;5.928;2023-01-28T08:25:39;4.40;97.50
39023;DHT22;25908;51.984;5.928;2023-01-28T08:28:05;4.40;97.60
39023;DHT22;25908;51.984;5.928;2023-01-28T08:30:31;4.40;97.70
39023;DHT22;25908;51.984;5.928;2023-01-28T08:32:58;4.40;97.80
39023;DHT22;25908;51.984;5.928;2023-01-28T08:35:25;4.40;97.80
39023;DHT22;25908;51.984;5.928;2023-01-28T08:37:51;4.40;97.90
39023;DHT22;25908;51.984;5.928;2023-01-28T08:40:16;4.40;98.30
39023;DHT22;25908;51.984;5.928;2023-01-28T08:42:46;4.40;98.00
39023;DHT22;25908;51.984;5.928;2023-01-28T08:45:13;4.40;97.90
39023;DHT22;25908;51.984;5.928;2023-01-28T08:47:52;4.50;97.80
39023;DHT22;25908;51.984;5.928;2023-01-28T08:50:19;4.40;97.40
39023;DHT22;25908;51.984;5.928;2023-01-28T08:52:46;4.40;97.40
39023;DHT22;25908;51.984;5.928;2023-01-28T08:55:12;4.40;97.70
39023;DHT22;25908;51.984;5.928;2023-01-28T08:57:38;4.50;97.50
39023;DHT22;25908;51.984;5.928;2023-01-28T09:00:04;4.40;97.50
39023;DHT22;25908;51.984;5.928;2023-01-28T09:02:30;4.40;97.80
39023;DHT22;25908;51.984;5.928;2023-01-28T09:04:56;4.40;97.70
39023;DHT22;25908;51.984;5.928;2023-01-28T09:07:21;4.40;97.50
39023;DHT22;25908;51.984;5.928;2023-01-28T09:09:47;4.40;97.10
39023;DHT22;25908;51.984;5.928;2023-01-28T09:12:12;4.30;97.40
39023;DHT22;25908;51.984;5.928;2023-01-28T09:14:39;4.40;97.70
39023;DHT22;25908;51.984;5.928;2023-01-28T09:17:04;4.40;97.90
39023;DHT22;25908;51.984;5.928;2023-01-28T09:19:30;4.40;97.90
39023;DHT22;25908;51.984;5.928;2023-01-28T09:21:56;4.40;97.80
39023;DHT22;25908;51.984;5.928;2023-01-28T09:24:21;4.50;97.70
39023;DHT22;25908;51.984;5.928;2023-01-28T09:26:50;4.50;97.80
39023;DHT22;25908;51.984;5.928;2023-01-28T09:29:16;4.50;97.80
39023;DHT22;25908;51.984;5.928;2023-01-28T09:31:42;4.50;97.60
39023;DHT22;25908;51.984;5.928;2023-01-28T09:34:08;4.60;97.60
39023;DHT22;25908;51.984;5.928;2023-01-28T09:36:34;4.50;97.30
39023;DHT22;25908;51.984;5.928;2023-01-28T09:39:00;4.60;97.60
39023;DHT22;25908;51.984;5.928;2023-01-28T09:41:29;4.60;97.60
39023;DHT22;25908;51.984;5.928;2023-01-28T09:44:03;4.60;97.50
39023;DHT22;25908;51.984;5.928;2023-01-28T09:46:39;4.60;97.40
39023;DHT22;25908;51.984;5.928;2023-01-28T09:49:32;4.70;97.50
39023;DHT22;25908;51.984;5.928;2023-01-28T09:51:58;4.70;97.30
39023;DHT22;25908;51.984;5.928;2023-01-28T09:54:50;4.70;97.40
39023;DHT22;25908;51.984;5.928;2023-01-28T09:57:22;4.70;97.40
39023;DHT22;25908;51.984;5.928;2023-01-28T09:59:49;4.70;97.20
39023;DHT22;25908;51.984;5.928;2023-01-28T10:02:44;4.70;97.20
39023;DHT22;25908;51.984;5.928;2023-01-28T10:05:39;4.70;96.80
39023;DHT22;25908;51.984;5.928;2023-01-28T10:11:25;4.70;96.80
39023;DHT22;25908;51.984;5.928;2023-01-28T10:14:27;4.80;96.90
39023;DHT22;25908;51.984;5.928;2023-01-28T10:17:10;4.90;96.90
39023;DHT22;25908;51.984;5.928;2023-01-28T10:19:42;4.90;96.70
39023;DHT22;25908;51.984;5.928;2023-01-28T10:22:34;4.90;96.30
39023;DHT22;25908;51.984;5.928;2023-01-28T10:25:06;4.90;96.30
39023;DHT22;25908;51.984;5.928;2023-01-28T10:27:33;4.90;96.30
39023;DHT22;25908;51.984;5.928;2023-01-28T10:30:17;5.00;96.60
39023;DHT22;25908;51.984;5.928;2023-01-28T10:33:08;5.00;96.40
39023;DHT22;25908;51.984;5.928;2023-01-28T10:35:39;5.10;96.50
39023;DHT22;25908;51.984;5.928;2023-01-28T10:38:08;5.10;96.60
39023;DHT22;25908;51.984;5.928;2023-01-28T10:40:35;5.20;96.20
39023;DHT22;25908;51.984;5.928;2023-01-28T10:43:01;5.20;95.80
39023;DHT22;25908;51.984;5.928;2023-01-28T10:45:34;5.20;96.30
39023;DHT22;25908;51.984;5.928;2023-01-28T10:50:53;5.20;96.50
39023;DHT22;25908;51.984;5.928;2023-01-28T10:53:42;5.30;96.50
39023;DHT22;25908;51.984;5.928;2023-01-28T10:56:13;5.30;96.50
39023;DHT22;25908;51.984;5.928;2023-01-28T10:59:17;5.40;96.40
39023;DHT22;25908;51.984;5.928;2023-01-28T11:01:49;5.50;96.10
39023;DHT22;25908;51.984;5.928;2023-01-28T11:04:23;5.60;95.90
39023;DHT22;25908;51.984;5.928;2023-01-28T11:09:26;5.70;95.20
39023;DHT22;25908;51.984;5.928;2023-01-28T11:11:52;5.70;94.90
39023;DHT22;25908;51.984;5.928;2023-01-28T11:14:23;5.70;95.10
39023;DHT22;25908;51.984;5.928;2023-01-28T11:16:51;5.80;95.10
39023;DHT22;25908;51.984;5.928;2023-01-28T11:19:19;5.80;95.10
39023;DHT22;25908;51.984;5.928;2023-01-28T11:21:51;5.90;95.20
39023;DHT22;25908;51.984;5.928;2023-01-28T11:24:29;6.00;95.20
39023;DHT22;25908;51.984;5.928;2023-01-28T11:26:58;6.00;94.90
39023;DHT22;25908;51.984;5.928;2023-01-28T11:29:32;6.00;94.10
39023;DHT22;25908;51.984;5.928;2023-01-28T11:31:59;5.80;94.30
39023;DHT22;25908;51.984;5.928;2023-01-28T11:34:32;5.80;94.40
39023;DHT22;25908;51.984;5.928;2023-01-28T11:39:30;5.70;94.60
39023;DHT22;25908;51.984;5.928;2023-01-28T11:42:21;5.70;94.90
39023;DHT22;25908;51.984;5.928;2023-01-28T11:44:48;5.70;95.40
39023;DHT22;25908;51.984;5.928;2023-01-28T11:47:32;5.70;95.40
39023;DHT22;25908;51.984;5.928;2023-01-28T11:52:47;5.60;95.30
39023;DHT22;25908;51.984;5.928;2023-01-28T11:58:21;5.40;95.40
39023;DHT22;25908;51.984;5.928;2023-01-28T12:01:01;5.30;95.70
39023;DHT22;25908;51.984;5.928;2023-01-28T12:03:42;5.20;96.20
39023;DHT22;25908;51.984;5.928;2023-01-28T12:11:46;5.20;96.10
39023;DHT22;25908;51.984;5.928;2023-01-28T12:20:28;5.40;95.80
39023;DHT22;25908;51.984;5.928;2023-01-28T12:28:51;5.50;96.10
39023;DHT22;25908;51.984;5.928;2023-01-28T12:31:39;5.60;96.20
39023;DHT22;25908;51.984;5.928;2023-01-28T12:37:18;5.80;96.40
39023;DHT22;25908;51.984;5.928;2023-01-28T12:40:12;5.90;95.90
39023;DHT22;25908;51.984;5.928;2023-01-28T12:42:59;5.90;95.70
39023;DHT22;25908;51.984;5.928;2023-01-28T12:45:37;6.00;95.40
39023;DHT22;25908;51.984;5.928;2023-01-28T12:48:17;6.00;94.80
39023;DHT22;25908;51.984;5.928;2023-01-28T12:50:58;5.90;95.20
39023;DHT22;25908;51.984;5.928;2023-01-28T12:53:28;5.90;95.30
39023;DHT22;25908;51.984;5.928;2023-01-28T13:01:39;5.90;95.10
39023;DHT22;25908;51.984;5.928;2023-01-28T13:04:30;5.90;95.40
39023;DHT22;25908;51.984;5.928;2023-01-28T13:07:04;5.90;95.40
39023;DHT22;25908;51.984;5.928;2023-01-28T13:09:33;6.00;95.30
39023;DHT22;25908;51.984;5.928;2023-01-28T13:12:00;6.00;95.00
39023;DHT22;25908;51.984;5.928;2023-01-28T13:14:32;6.00;95.20
39023;DHT22;25908;51.984;5.928;2023-01-28T13:19:41;6.10;95.20
39023;DHT22;25908;51.984;5.928;2023-01-28T13:22:12;6.10;95.10
39023;DHT22;25908;51.984;5.928;2023-01-28T13:24:49;6.20;95.00
39023;DHT22;25908;51.984;5.928;2023-01-28T13:27:25;6.10;94.80
39023;DHT22;25908;51.984;5.928;2023-01-28T13:30:04;6.10;95.00
39023;DHT22;25908;51.984;5.928;2023-01-28T13:32:33;6.10;95.00
39023;DHT22;25908;51.984;5.928;2023-01-28T13:35:04;6.10;95.10
39023;DHT22;25908;51.984;5.928;2023-01-28T13:37:43;6.10;95.10
39023;DHT22;25908;51.984;5.928;2023-01-28T13:42:38;6.00;95.50
39023;DHT22;25908;51.984;5.928;2023-01-28T13:47:47;5.80;96.00
39023;DHT22;25908;51.984;5.928;2023-01-28T13:50:20;5.80;96.00
39023;DHT22;25908;51.984;5.928;2023-01-28T13:52:55;5.80;96.20
39023;DHT22;25908;51.984;5.928;2023-01-28T13:55:26;5.80;96.00
39023;DHT22;25908;51.984;5.928;2023-01-28T14:17:47;5.70;96.50
39023;DHT22;25908;51.984;5.928;2023-01-28T14:20:18;5.70;96.60
39023;DHT22;25908;51.984;5.928;2023-01-28T14:22:45;5.70;96.80
39023;DHT22;25908;51.984;5.928;2023-01-28T14:25:14;5.80;96.50
39023;DHT22;25908;51.984;5.928;2023-01-28T14:27:43;5.70;96.20
39023;DHT22;25908;51.984;5.928;2023-01-28T14:30:29;5.70;96.10
39023;DHT22;25908;51.984;5.928;2023-01-28T14:32:58;5.60;96.20
39023;DHT22;25908;51.984;5.928;2023-01-28T14:35:32;5.60;96.40
39023;DHT22;25908;51.984;5.928;2023-01-28T14:37:59;5.60;96.60
39023;DHT22;25908;51.984;5.928;2023-01-28T14:40:38;5.60;96.50
39023;DHT22;25908;51.984;5.928;2023-01-28T14:43:07;5.60;96.20
39023;DHT22;25908;51.984;5.928;2023-01-28T14:51:36;5.60;95.80
39023;DHT22;25908;51.984;5.928;2023-01-28T14:59:27;5.50;96.60
39023;DHT22;25908;51.984;5.928;2023-01-28T15:01:57;5.50;96.80
39023;DHT22;25908;51.984;5.928;2023-01-28T15:04:25;5.50;96.60
39023;DHT22;25908;51.984;5.928;2023-01-28T15:06:52;5.60;96.50
39023;DHT22;25908;51.984;5.928;2023-01-28T15:09:18;5.60;96.80
39023;DHT22;25908;51.984;5.928;2023-01-28T15:11:46;5.60;96.60
39023;DHT22;25908;51.984;5.928;2023-01-28T15:14:19;5.60;96.70
39023;DHT22;25908;51.984;5.928;2023-01-28T15:16:47;5.60;96.90
39023;DHT22;25908;51.984;5.928;2023-01-28T15:19:14;5.60;96.80
39023;DHT22;25908;51.984;5.928;2023-01-28T15:21:43;5.60;96.70
39023;DHT22;25908;51.984;5.928;2023-01-28T15:24:12;5.60;96.90
39023;DHT22;25908;51.984;5.928;2023-01-28T15:26:38;5.50;96.80
39023;DHT22;25908;51.984;5.928;2023-01-28T15:29:04;5.60;96.90
39023;DHT22;25908;51.984;5.928;2023-01-28T15:31:32;5.50;97.10
39023;DHT22;25908;51.984;5.928;2023-01-28T15:34:00;5.50;97.10
39023;DHT22;25908;51.984;5.928;2023-01-28T15:36:26;5.50;97.10
39023;DHT22;25908;51.984;5.928;2023-01-28T15:38:53;5.50;97.20
39023;DHT22;25908;51.984;5.928;2023-01-28T15:41:24;5.50;97.40
39023;DHT22;25908;51.984;5.928;2023-01-28T15:43:52;5.50;97.50
39023;DHT22;25908;51.984;5.928;2023-01-28T15:46:18;5.40;97.50
39023;DHT22;25908;51.984;5.928;2023-01-28T15:48:49;5.40;97.40
39023;DHT22;25908;51.984;5.928;2023-01-28T15:51:18;5.40;97.50
39023;DHT22;25908;51.984;5.928;2023-01-28T15:53:46;5.40;97.80
39023;DHT22;25908;51.984;5.928;2023-01-28T15:56:14;5.30;97.90
39023;DHT22;25908;51.984;5.928;2023-01-28T15:58:41;5.30;98.00
39023;DHT22;25908;51.984;5.928;2023-01-28T16:03:33;5.20;98.10
39023;DHT22;25908;51.984;5.928;2023-01-28T16:06:05;5.20;98.20
39023;DHT22;25908;51.984;5.928;2023-01-28T16:08:51;5.20;98.20
39023;DHT22;25908;51.984;5.928;2023-01-28T16:11:37;5.20;98.30
39023;DHT22;25908;51.984;5.928;2023-01-28T16:14:26;5.20;98.40
39023;DHT22;25908;51.984;5.928;2023-01-28T16:16:54;5.20;98.60
39023;DHT22;25908;51.984;5.928;2023-01-28T16:19:41;5.10;98.70
39023;DHT22;25908;51.984;5.928;2023-01-28T16:22:18;5.20;98.90
39023;DHT22;25908;51.984;5.928;2023-01-28T16:24:51;5.10;99.00
39023;DHT22;25908;51.984;5.928;2023-01-28T16:27:21;5.10;99.20
39023;DHT22;25908;51.984;5.928;2023-01-28T16:29:46;5.00;99.30
39023;DHT22;25908;51.984;5.928;2023-01-28T16:32:33;5.00;99.40
39023;DHT22;25908;51.984;5.928;2023-01-28T16:35:00;5.00;99.60
39023;DHT22;25908;51.984;5.928;2023-01-28T16:37:26;5.00;99.60
39023;DHT22;25908;51.984;5.928;2023-01-28T16:39:51;5.00;99.70
39023;DHT22;25908;51.984;5.928;2023-01-28T16:42:17;4.90;99.90
39023;DHT22;25908;51.984;5.928;2023-01-28T16:44:43;4.90;99.90
39023;DHT22;25908;51.984;5.928;2023-01-28T16:47:08;4.90;99.90
39023;DHT22;25908;51.984;5.928;2023-01-28T16:49:34;4.90;99.90
39023;DHT22;25908;51.984;5.928;2023-01-28T16:52:01;4.90;99.90
39023;DHT22;25908;51.984;5.928;2023-01-28T16:54:27;4.90;99.90
39023;DHT22;25908;51.984;5.928;2023-01-28T16:56:53;4.90;99.90
39023;DHT22;25908;51.984;5.928;2023-01-28T16:59:20;4.90;99.90
39023;DHT22;25908;51.984;5.928;2023-01-28T17:01:46;4.90;99.90
39023;DHT22;25908;51.984;5.928;2023-01-28T17:04:12;4.90;99.90
39023;DHT22;25908;51.984;5.928;2023-01-28T17:06:38;5.00;99.90
39023;DHT22;25908;51.984;5.928;2023-01-28T17:09:06;5.00;99.90
39023;DHT22;25908;51.984;5.928;2023-01-28T17:11:32;5.00;99.90
39023;DHT22;25908;51.984;5.928;2023-01-28T17:13:58;5.10;99.90
39023;DHT22;25908;51.984;5.928;2023-01-28T17:16:24;5.00;99.90
39023;DHT22;25908;51.984;5.928;2023-01-28T17:18:50;5.10;99.90
39023;DHT22;25908;51.984;5.928;2023-01-28T17:21:16;5.00;99.90
39023;DHT22;25908;51.984;5.928;2023-01-28T17:23:42;5.00;99.80
39023;DHT22;25908;51.984;5.928;2023-01-28T17:26:10;5.00;99.70
39023;DHT22;25908;51.984;5.928;2023-01-28T17:28:36;5.00;99.60
39023;DHT22;25908;51.984;5.928;2023-01-28T17:31:09;4.90;99.90
39023;DHT22;25908;51.984;5.928;2023-01-28T17:33:39;5.00;99.90
39023;DHT22;25908;51.984;5.928;2023-01-28T17:36:05;5.00;99.80
39023;DHT22;25908;51.984;5.928;2023-01-28T17:38:31;5.00;99.80
39023;DHT22;25908;51.984;5.928;2023-01-28T17:41:05;5.00;99.60
39023;DHT22;25908;51.984;5.928;2023-01-28T17:43:32;5.00;99.70
39023;DHT22;25908;51.984;5.928;2023-01-28T17:46:09;5.00;99.90